Time;durP1;ratioP1;P1;durP2;ratioP2;P2;SDS_P1;SDS_P2;PMS_P1;PMS_P2;Temp;Humidity;BMP_temperature;BMP_pressure;BME280_temperature;BME280_humidity;BME280_pressure;Samples;Min_cycle;Max_cycle;Signal;HPM_P1;HPM_P2
2023/01/05 00:01:37;;;;;;;58.45;42.42;;;;;;;;;;5108159;27;20042;-74
2023/01/05 00:04:04;;;;;;;72.10;51.97;;;;;;;;;;5106221;27;20051;-73
2023/01/05 00:06:29;;;;;;;74.25;51.63;;;;;;;;;;5117834;27;20065;-73
2023/01/05 00:08:54;;;;;;;69.15;47.88;;;;;;;;;;5103784;27;20024;-72
2023/01/05 00:22:31;;;;;;;126.80;90.88;;;;;;;;;;5116640;27;20037;-71
2023/01/05 00:25:07;;;;;;;86.80;64.30;;;;;;;;;;5101380;27;20019;-71
2023/01/05 00:27:32;;;;;;;204.82;144.07;;;;;;;;;;5102221;27;20113;-71
2023/01/05 00:29:58;;;;;;;151.45;103.13;;;;;;;;;;5092080;27;20119;-71
2023/01/05 00:32:24;;;;;;;188.88;124.85;;;;;;;;;;5111694;27;20028;-72
2023/01/05 00:34:49;;;;;;;49.75;39.78;;;;;;;;;;5097747;27;20034;-71
2023/01/05 00:37:15;;;;;;;49.67;38.03;;;;;;;;;;5110650;27;20031;-72
2023/01/05 00:39:41;;;;;;;54.67;40.58;;;;;;;;;;5112802;27;20054;-72
2023/01/05 00:42:06;;;;;;;46.85;35.10;;;;;;;;;;5112976;27;20422;-77
2023/01/05 00:44:31;;;;;;;40.60;31.63;;;;;;;;;;5113407;27;20474;-74
2023/01/05 00:46:56;;;;;;;36.72;30.33;;;;;;;;;;5113643;27;20080;-72
2023/01/05 00:49:22;;;;;;;48.05;35.25;;;;;;;;;;5109081;27;20027;-71
2023/01/05 00:51:47;;;;;;;52.95;37.78;;;;;;;;;;5103024;27;20501;-71
2023/01/05 00:54:12;;;;;;;43.15;33.25;;;;;;;;;;5115021;27;20028;-71
2023/01/05 00:56:37;;;;;;;47.05;33.83;;;;;;;;;;5112992;27;20080;-72
2023/01/05 00:59:03;;;;;;;46.40;38.47;;;;;;;;;;5109048;27;20130;-72
2023/01/05 01:01:28;;;;;;;49.45;39.58;;;;;;;;;;5107013;27;20060;-71
2023/01/05 01:03:54;;;;;;;42.17;33.65;;;;;;;;;;5095591;27;20089;-72
2023/01/05 01:06:19;;;;;;;44.08;34.53;;;;;;;;;;5097645;27;20031;-72
2023/01/05 01:08:45;;;;;;;48.55;38.50;;;;;;;;;;5088285;28;20488;-72
2023/01/05 01:11:10;;;;;;;66.45;54.42;;;;;;;;;;5112383;27;20694;-74
2023/01/05 01:13:37;;;;;;;49.65;42.33;;;;;;;;;;5114349;28;20361;-73
2023/01/05 01:16:07;;;;;;;32.88;28.33;;;;;;;;;;5110744;27;20027;-72
2023/01/05 01:18:32;;;;;;;68.55;44.28;;;;;;;;;;5110877;27;20454;-72
2023/01/05 01:20:58;;;;;;;112.82;90.43;;;;;;;;;;5102958;28;20028;-75
2023/01/05 01:23:23;;;;;;;104.25;83.05;;;;;;;;;;5099604;28;20023;-72
2023/01/05 01:25:48;;;;;;;125.93;98.22;;;;;;;;;;5108604;28;20377;-72
2023/01/05 01:28:14;;;;;;;114.35;88.70;;;;;;;;;;5110911;28;20406;-71
2023/01/05 01:30:39;;;;;;;112.72;85.97;;;;;;;;;;5115366;28;20039;-75
2023/01/05 01:33:04;;;;;;;72.30;57.22;;;;;;;;;;5114883;28;20484;-71
2023/01/05 01:35:30;;;;;;;57.97;44.83;;;;;;;;;;5116756;28;20042;-71
2023/01/05 01:37:55;;;;;;;70.10;56.55;;;;;;;;;;5114638;28;20026;-76
2023/01/05 01:40:20;;;;;;;83.45;68.07;;;;;;;;;;5100964;28;20429;-71
2023/01/05 01:42:46;;;;;;;89.40;70.70;;;;;;;;;;5105909;28;20037;-76
2023/01/05 01:45:16;;;;;;;53.95;44.47;;;;;;;;;;5113336;28;20035;-71
2023/01/05 01:47:47;;;;;;;89.82;69.68;;;;;;;;;;5113679;28;20115;-71
2023/01/05 01:50:23;;;;;;;61.50;47.90;;;;;;;;;;5113162;28;20058;-72
2023/01/05 01:52:50;;;;;;;42.55;32.85;;;;;;;;;;5110087;28;20036;-73
2023/01/05 01:55:16;;;;;;;48.33;36.03;;;;;;;;;;5106263;28;20087;-70
2023/01/05 01:57:42;;;;;;;50.17;37.90;;;;;;;;;;5110643;28;20442;-75
2023/01/05 02:00:09;;;;;;;43.25;33.70;;;;;;;;;;5113593;28;20023;-71
2023/01/05 02:02:34;;;;;;;30.35;24.92;;;;;;;;;;5106188;28;20114;-72
2023/01/05 02:05:01;;;;;;;30.73;24.65;;;;;;;;;;5107700;28;20122;-72
2023/01/05 02:07:29;;;;;;;36.42;31.08;;;;;;;;;;5101975;28;20043;-76
2023/01/05 02:09:54;;;;;;;33.65;27.92;;;;;;;;;;5097374;28;20139;-73
2023/01/05 02:12:27;;;;;;;35.90;28.02;;;;;;;;;;5101327;28;20106;-72
2023/01/05 02:15:08;;;;;;;29.98;24.20;;;;;;;;;;5099554;28;20033;-72
2023/01/05 02:17:39;;;;;;;30.00;24.85;;;;;;;;;;5104408;27;20031;-75
2023/01/05 02:20:24;;;;;;;33.78;26.92;;;;;;;;;;5108858;27;20028;-72
2023/01/05 02:22:58;;;;;;;33.65;28.23;;;;;;;;;;5107985;27;20438;-72
2023/01/05 02:25:42;;;;;;;36.30;31.63;;;;;;;;;;5118951;27;20023;-72
2023/01/05 02:28:19;;;;;;;33.70;29.45;;;;;;;;;;5104918;27;20027;-73
2023/01/05 02:30:48;;;;;;;33.40;29.63;;;;;;;;;;5109603;27;20022;-71
2023/01/05 02:33:19;;;;;;;33.72;27.58;;;;;;;;;;5115888;27;20042;-73
2023/01/05 02:35:53;;;;;;;28.30;24.70;;;;;;;;;;5118737;27;20035;-73
2023/01/05 02:38:39;;;;;;;38.90;30.52;;;;;;;;;;5113153;27;20057;-71
2023/01/05 02:41:24;;;;;;;38.33;32.88;;;;;;;;;;5069824;27;20122;-73
2023/01/05 02:43:50;;;;;;;34.53;29.23;;;;;;;;;;5114565;27;20037;-72
2023/01/05 02:46:15;;;;;;;33.85;27.23;;;;;;;;;;5080337;28;20024;-76
2023/01/05 02:48:41;;;;;;;35.15;26.70;;;;;;;;;;5090938;28;20349;-72
2023/01/05 02:51:09;;;;;;;34.72;28.08;;;;;;;;;;5104807;27;20031;-74
2023/01/05 02:53:41;;;;;;;32.47;26.33;;;;;;;;;;5081320;27;20042;-71
2023/01/05 02:56:07;;;;;;;31.20;25.83;;;;;;;;;;5113245;27;20315;-75
2023/01/05 02:58:38;;;;;;;32.53;27.70;;;;;;;;;;5113735;27;20091;-72
2023/01/05 03:01:09;;;;;;;26.88;22.80;;;;;;;;;;5115602;27;20358;-72
2023/01/05 03:03:35;;;;;;;21.67;19.27;;;;;;;;;;5118042;27;20150;-74
2023/01/05 03:06:07;;;;;;;32.42;26.83;;;;;;;;;;5120059;27;20110;-74
2023/01/05 03:08:35;;;;;;;36.28;29.65;;;;;;;;;;5107808;27;20039;-71
2023/01/05 03:13:53;;;;;;;47.63;36.28;;;;;;;;;;5111051;27;20034;-74
2023/01/05 03:16:21;;;;;;;53.65;42.53;;;;;;;;;;5110195;27;20027;-73
2023/01/05 03:35:34;;;;;;;35.90;29.08;;;;;;;;;;5112406;27;20098;-74
2023/01/05 03:38:20;;;;;;;28.40;24.70;;;;;;;;;;5112832;27;20023;-72
2023/01/05 03:40:49;;;;;;;43.83;36.13;;;;;;;;;;5110842;27;20020;-77
2023/01/05 03:43:14;;;;;;;38.45;31.73;;;;;;;;;;5099655;27;20023;-76
2023/01/05 03:45:51;;;;;;;31.95;26.67;;;;;;;;;;5115057;27;20027;-72
2023/01/05 03:48:16;;;;;;;32.78;29.17;;;;;;;;;;5113442;27;20027;-73
2023/01/05 03:50:42;;;;;;;42.75;31.38;;;;;;;;;;5117803;27;20076;-71
2023/01/05 03:53:07;;;;;;;44.67;33.88;;;;;;;;;;5098212;27;20019;-71
2023/01/05 03:55:32;;;;;;;39.00;29.17;;;;;;;;;;5112342;27;20031;-73
2023/01/05 03:57:58;;;;;;;32.80;26.65;;;;;;;;;;5113619;27;20446;-77
2023/01/05 04:00:24;;;;;;;38.25;30.58;;;;;;;;;;5114343;27;20421;-74
2023/01/05 04:02:50;;;;;;;70.18;46.20;;;;;;;;;;5114742;27;20019;-75
2023/01/05 04:05:15;;;;;;;36.95;29.10;;;;;;;;;;5093853;27;20034;-71
2023/01/05 04:07:40;;;;;;;46.88;35.88;;;;;;;;;;5101196;27;20445;-71
2023/01/05 04:10:06;;;;;;;43.97;34.38;;;;;;;;;;5108542;27;20094;-71
2023/01/05 04:12:31;;;;;;;45.58;39.08;;;;;;;;;;5114091;27;20019;-71
2023/01/05 04:14:56;;;;;;;32.75;26.40;;;;;;;;;;5111731;27;20080;-73
2023/01/05 04:17:21;;;;;;;44.15;35.70;;;;;;;;;;5106825;27;20081;-70
2023/01/05 04:19:47;;;;;;;37.53;29.60;;;;;;;;;;5094453;27;20092;-76
2023/01/05 04:22:12;;;;;;;33.92;29.17;;;;;;;;;;5107560;27;20036;-74
2023/01/05 04:24:37;;;;;;;40.55;33.92;;;;;;;;;;5098588;27;20088;-72
2023/01/05 04:27:03;;;;;;;32.78;26.77;;;;;;;;;;5114383;27;20366;-71
2023/01/05 04:29:28;;;;;;;41.33;34.60;;;;;;;;;;5107789;27;20034;-74
2023/01/05 04:31:53;;;;;;;36.10;30.30;;;;;;;;;;5113658;27;20035;-71
2023/01/05 04:34:20;;;;;;;27.15;22.85;;;;;;;;;;5115112;27;20453;-72
2023/01/05 04:36:46;;;;;;;32.15;24.23;;;;;;;;;;5114357;27;20434;-71
2023/01/05 04:39:12;;;;;;;35.47;29.58;;;;;;;;;;5108378;27;20033;-76
2023/01/05 04:41:37;;;;;;;27.85;22.17;;;;;;;;;;5079151;27;20425;-75
2023/01/05 04:44:02;;;;;;;36.13;30.60;;;;;;;;;;5112990;27;20042;-72
2023/01/05 04:46:28;;;;;;;33.65;28.00;;;;;;;;;;5112663;27;20126;-71
2023/01/05 04:48:53;;;;;;;36.63;30.23;;;;;;;;;;5111844;27;20395;-72
2023/01/05 04:51:18;;;;;;;31.95;26.85;;;;;;;;;;5114112;27;20069;-73
2023/01/05 04:53:44;;;;;;;32.28;26.00;;;;;;;;;;5102675;27;20031;-71
2023/01/05 04:56:09;;;;;;;31.08;25.13;;;;;;;;;;5093891;27;20058;-72
2023/01/05 04:58:35;;;;;;;33.78;26.77;;;;;;;;;;5094911;27;20039;-74
2023/01/05 05:01:00;;;;;;;34.67;28.20;;;;;;;;;;5092109;27;20114;-74
2023/01/05 05:03:25;;;;;;;33.42;27.58;;;;;;;;;;5096434;27;20085;-71
2023/01/05 05:05:51;;;;;;;29.83;24.20;;;;;;;;;;5098287;27;20038;-71
2023/01/05 05:08:16;;;;;;;23.92;20.85;;;;;;;;;;5098263;27;20428;-75
2023/01/05 05:10:41;;;;;;;25.40;21.15;;;;;;;;;;5099083;27;20024;-73
2023/01/05 05:13:06;;;;;;;27.33;22.42;;;;;;;;;;5109610;27;20074;-73
2023/01/05 05:15:32;;;;;;;32.05;27.20;;;;;;;;;;5113245;27;20025;-72
2023/01/05 05:17:57;;;;;;;37.25;30.10;;;;;;;;;;5117896;27;20031;-73
2023/01/05 05:20:22;;;;;;;34.45;27.15;;;;;;;;;;5115941;27;20038;-72
2023/01/05 05:22:48;;;;;;;29.40;24.40;;;;;;;;;;5113853;28;20092;-71
2023/01/05 05:25:13;;;;;;;36.80;31.35;;;;;;;;;;5116206;28;20019;-72
2023/01/05 05:27:38;;;;;;;29.95;25.38;;;;;;;;;;5102045;28;20455;-71
2023/01/05 05:30:04;;;;;;;29.33;23.70;;;;;;;;;;5107455;28;20500;-75
2023/01/05 05:32:29;;;;;;;32.78;27.38;;;;;;;;;;5113691;28;20039;-73
2023/01/05 05:34:55;;;;;;;37.90;33.00;;;;;;;;;;5115693;28;20031;-74
2023/01/05 05:37:20;;;;;;;55.38;45.40;;;;;;;;;;5095477;28;20093;-72
2023/01/05 05:39:45;;;;;;;53.00;44.75;;;;;;;;;;5116853;28;20042;-72
2023/01/05 05:42:11;;;;;;;39.15;32.42;;;;;;;;;;5114240;28;20431;-74
2023/01/05 05:44:36;;;;;;;47.88;40.80;;;;;;;;;;5116533;28;20019;-72
2023/01/05 05:47:01;;;;;;;47.30;40.25;;;;;;;;;;5115095;28;20031;-71
2023/01/05 05:49:26;;;;;;;34.35;28.75;;;;;;;;;;5106111;28;20019;-71
2023/01/05 05:51:52;;;;;;;47.05;35.85;;;;;;;;;;5112349;27;20079;-71
2023/01/05 05:54:17;;;;;;;38.25;30.67;;;;;;;;;;5118537;27;20113;-71
2023/01/05 05:56:42;;;;;;;40.13;33.25;;;;;;;;;;5121754;27;20098;-74
2023/01/05 05:59:08;;;;;;;52.00;41.97;;;;;;;;;;5118906;27;20048;-78
2023/01/05 06:01:33;;;;;;;46.85;36.75;;;;;;;;;;5120910;27;20031;-75
2023/01/05 06:03:59;;;;;;;35.22;28.95;;;;;;;;;;5119467;27;20376;-73
2023/01/05 06:06:24;;;;;;;45.05;35.25;;;;;;;;;;5113178;27;20020;-76
2023/01/05 06:08:49;;;;;;;58.83;47.42;;;;;;;;;;5103265;27;20063;-76
2023/01/05 06:11:14;;;;;;;65.13;51.05;;;;;;;;;;5113298;27;20383;-74
2023/01/05 06:13:40;;;;;;;52.88;40.85;;;;;;;;;;5111490;27;20035;-72
2023/01/05 06:16:05;;;;;;;42.40;34.45;;;;;;;;;;5117992;27;20023;-74
2023/01/05 06:18:31;;;;;;;35.53;29.55;;;;;;;;;;5120473;27;20031;-74
2023/01/05 06:20:56;;;;;;;40.47;30.67;;;;;;;;;;5119367;27;20063;-74
2023/01/05 06:23:21;;;;;;;53.50;39.70;;;;;;;;;;5117355;27;20083;-74
2023/01/05 06:25:46;;;;;;;38.40;31.48;;;;;;;;;;5120003;27;20042;-76
2023/01/05 06:28:12;;;;;;;35.75;29.60;;;;;;;;;;5101165;27;20449;-77
2023/01/05 06:30:37;;;;;;;62.03;50.00;;;;;;;;;;5118221;27;20024;-72
2023/01/05 06:33:02;;;;;;;180.65;122.35;;;;;;;;;;5112390;27;20035;-73
2023/01/05 06:35:28;;;;;;;156.18;97.65;;;;;;;;;;5105279;27;20046;-73
2023/01/05 06:37:54;;;;;;;161.90;108.50;;;;;;;;;;5106199;27;20087;-72
2023/01/05 06:40:19;;;;;;;97.68;74.57;;;;;;;;;;5082680;27;20032;-71
2023/01/05 06:42:44;;;;;;;150.98;108.50;;;;;;;;;;5115773;27;20038;-74
2023/01/05 06:45:12;;;;;;;121.55;82.32;;;;;;;;;;5117376;27;20023;-72
2023/01/05 06:47:37;;;;;;;103.20;77.78;;;;;;;;;;5117249;27;20457;-72
2023/01/05 06:50:02;;;;;;;211.35;149.23;;;;;;;;;;5117125;27;20051;-74
2023/01/05 06:52:28;;;;;;;210.98;143.35;;;;;;;;;;5118717;27;20035;-72
2023/01/05 06:54:53;;;;;;;189.05;118.95;;;;;;;;;;5116991;27;20034;-74
2023/01/05 06:57:18;;;;;;;72.60;55.03;;;;;;;;;;5101058;27;20051;-74
2023/01/05 06:59:44;;;;;;;77.47;52.35;;;;;;;;;;5098120;27;20436;-74
2023/01/05 07:02:14;;;;;;;45.47;34.90;;;;;;;;;;5099095;27;20030;-74
2023/01/05 07:04:41;;;;;;;33.47;25.20;;;;;;;;;;5102901;27;20067;-77
2023/01/05 07:07:06;;;;;;;30.00;23.80;;;;;;;;;;5104844;27;20024;-75
2023/01/05 07:09:31;;;;;;;106.32;72.50;;;;;;;;;;5103867;27;20050;-73
2023/01/05 07:11:57;;;;;;;68.80;39.78;;;;;;;;;;5111244;27;20031;-74
2023/01/05 07:14:23;;;;;;;30.30;25.25;;;;;;;;;;5102742;27;20122;-75
2023/01/05 07:16:49;;;;;;;27.58;22.05;;;;;;;;;;5102508;27;20034;-74
2023/01/05 07:19:14;;;;;;;32.63;22.67;;;;;;;;;;5099833;27;20019;-75
2023/01/05 07:21:39;;;;;;;52.65;32.72;;;;;;;;;;5103296;27;20030;-74
2023/01/05 07:24:05;;;;;;;27.17;19.85;;;;;;;;;;5104977;27;20327;-76
2023/01/05 07:26:30;;;;;;;361.05;173.13;;;;;;;;;;5104428;27;20035;-74
2023/01/05 07:28:57;;;;;;;201.95;102.97;;;;;;;;;;5103270;27;20369;-77
2023/01/05 07:31:22;;;;;;;142.40;80.88;;;;;;;;;;5103612;27;20449;-74
2023/01/05 07:33:48;;;;;;;118.97;73.07;;;;;;;;;;5104228;27;20019;-74
2023/01/05 07:36:13;;;;;;;112.60;68.85;;;;;;;;;;5102921;27;20173;-73
2023/01/05 07:38:38;;;;;;;58.28;39.95;;;;;;;;;;5104093;27;20046;-73
2023/01/05 07:41:03;;;;;;;53.42;36.47;;;;;;;;;;5104825;27;20073;-73
2023/01/05 07:43:29;;;;;;;28.77;22.35;;;;;;;;;;5104877;27;20034;-74
2023/01/05 07:45:58;;;;;;;20.20;17.13;;;;;;;;;;5103687;27;20061;-74
2023/01/05 07:48:23;;;;;;;21.55;19.00;;;;;;;;;;5101543;27;20101;-73
2023/01/05 07:50:48;;;;;;;20.73;18.48;;;;;;;;;;5104085;27;20103;-71
2023/01/05 07:53:13;;;;;;;44.65;35.97;;;;;;;;;;5103314;27;20114;-72
2023/01/05 07:55:39;;;;;;;38.03;29.77;;;;;;;;;;5102414;27;20027;-72
2023/01/05 07:58:04;;;;;;;21.55;16.75;;;;;;;;;;5101301;27;20074;-71
2023/01/05 08:00:29;;;;;;;18.23;16.30;;;;;;;;;;5103045;27;20038;-71
2023/01/05 08:02:55;;;;;;;20.92;18.73;;;;;;;;;;5104446;27;21772;-73
2023/01/05 08:05:20;;;;;;;35.42;26.05;;;;;;;;;;5102529;27;20354;-72
2023/01/05 08:07:46;;;;;;;25.02;21.15;;;;;;;;;;5103009;27;20027;-75
2023/01/05 08:10:29;;;;;;;29.35;23.42;;;;;;;;;;5085003;27;20026;-72
2023/01/05 08:15:43;;;;;;;40.77;30.77;;;;;;;;;;5103229;27;20039;-74
2023/01/05 08:18:09;;;;;;;16.48;14.77;;;;;;;;;;5100761;27;20570;-72
2023/01/05 08:20:34;;;;;;;20.98;16.88;;;;;;;;;;5106561;27;20023;-78
2023/01/05 08:22:59;;;;;;;19.80;16.98;;;;;;;;;;5116444;27;20464;-73
2023/01/05 08:25:25;;;;;;;18.80;16.90;;;;;;;;;;5116956;27;20042;-72
2023/01/05 08:27:50;;;;;;;18.35;16.45;;;;;;;;;;5115377;27;20430;-72
2023/01/05 08:30:15;;;;;;;25.38;22.77;;;;;;;;;;5116488;27;20038;-76
2023/01/05 08:32:41;;;;;;;21.42;19.33;;;;;;;;;;5116541;27;20031;-75
2023/01/05 08:35:06;;;;;;;20.33;17.98;;;;;;;;;;5115721;27;20094;-74
2023/01/05 08:37:32;;;;;;;27.15;24.45;;;;;;;;;;5115792;27;20096;-75
2023/01/05 08:39:57;;;;;;;25.50;21.88;;;;;;;;;;5114230;27;20023;-74
2023/01/05 08:42:22;;;;;;;21.33;18.95;;;;;;;;;;5114643;27;20089;-74
2023/01/05 08:44:48;;;;;;;24.55;21.00;;;;;;;;;;5114022;27;20033;-73
2023/01/05 08:47:13;;;;;;;20.70;18.50;;;;;;;;;;5096850;27;20029;-73
2023/01/05 08:49:38;;;;;;;24.83;20.52;;;;;;;;;;5110613;27;20450;-72
2023/01/05 08:52:03;;;;;;;21.98;17.42;;;;;;;;;;5114860;27;20084;-73
2023/01/05 08:54:29;;;;;;;22.67;19.90;;;;;;;;;;5114243;27;20026;-75
2023/01/05 08:56:54;;;;;;;34.58;25.20;;;;;;;;;;5115905;27;20092;-73
2023/01/05 08:59:20;;;;;;;46.80;36.53;;;;;;;;;;5115643;27;20431;-77
2023/01/05 09:01:45;;;;;;;39.45;30.85;;;;;;;;;;5115336;27;20402;-74
2023/01/05 09:04:10;;;;;;;20.63;18.42;;;;;;;;;;5117959;27;20034;-75
2023/01/05 09:06:35;;;;;;;23.50;21.00;;;;;;;;;;5114630;27;20023;-73
2023/01/05 09:09:01;;;;;;;20.83;18.63;;;;;;;;;;5115520;27;20032;-73
2023/01/05 09:11:26;;;;;;;20.30;18.13;;;;;;;;;;5117483;27;20035;-72
2023/01/05 09:13:52;;;;;;;22.25;19.95;;;;;;;;;;5117708;27;20106;-74
2023/01/05 09:16:19;;;;;;;27.85;22.08;;;;;;;;;;5112766;27;20074;-71
2023/01/05 09:18:45;;;;;;;34.95;29.85;;;;;;;;;;5113059;27;20307;-76
2023/01/05 09:21:10;;;;;;;19.25;17.30;;;;;;;;;;5113078;27;20037;-72
2023/01/05 09:23:36;;;;;;;19.25;17.35;;;;;;;;;;5106493;28;20031;-75
2023/01/05 09:26:05;;;;;;;18.98;16.98;;;;;;;;;;5112937;27;20071;-72
2023/01/05 09:28:30;;;;;;;24.35;20.42;;;;;;;;;;5116163;28;20052;-73
2023/01/05 09:30:56;;;;;;;22.27;19.17;;;;;;;;;;5114236;28;20342;-76
2023/01/05 09:33:21;;;;;;;26.38;20.67;;;;;;;;;;5115332;28;20023;-73
2023/01/05 09:35:55;;;;;;;20.02;17.42;;;;;;;;;;5115961;28;20038;-72
2023/01/05 09:38:21;;;;;;;18.77;16.88;;;;;;;;;;5114116;28;20023;-75
2023/01/05 09:40:47;;;;;;;121.07;72.55;;;;;;;;;;5117962;28;20053;-75
2023/01/05 09:43:17;;;;;;;28.65;24.67;;;;;;;;;;5112137;28;20037;-75
2023/01/05 09:45:42;;;;;;;15.93;14.25;;;;;;;;;;5115837;28;20022;-75
2023/01/05 09:48:10;;;;;;;16.05;14.20;;;;;;;;;;5096469;28;20039;-74
2023/01/05 09:50:35;;;;;;;20.48;14.70;;;;;;;;;;5106875;28;20118;-75
2023/01/05 09:53:00;;;;;;;16.13;14.43;;;;;;;;;;5100914;28;20390;-76
2023/01/05 09:55:27;;;;;;;20.60;18.60;;;;;;;;;;5101659;28;20064;-76
2023/01/05 09:57:55;;;;;;;21.33;19.13;;;;;;;;;;5097532;28;20678;-75
2023/01/05 10:00:22;;;;;;;21.90;19.80;;;;;;;;;;5082361;28;20349;-75
2023/01/05 10:02:50;;;;;;;13.45;12.15;;;;;;;;;;5100150;28;20031;-77
2023/01/05 10:05:15;;;;;;;16.15;14.35;;;;;;;;;;5101134;28;20043;-75
2023/01/05 10:07:40;;;;;;;17.83;15.82;;;;;;;;;;5082759;28;20095;-74
2023/01/05 10:10:25;;;;;;;25.73;21.58;;;;;;;;;;5081014;28;20353;-76
2023/01/05 10:13:04;;;;;;;14.18;12.77;;;;;;;;;;5100542;28;20039;-74
2023/01/05 10:15:33;;;;;;;18.33;16.45;;;;;;;;;;5100853;28;20028;-74
2023/01/05 10:17:59;;;;;;;16.87;15.17;;;;;;;;;;5099131;28;20127;-75
2023/01/05 10:20:38;;;;;;;22.88;20.40;;;;;;;;;;5102311;28;20026;-75
2023/01/05 10:23:26;;;;;;;35.27;31.73;;;;;;;;;;5100765;28;20050;-76
2023/01/05 10:25:52;;;;;;;48.78;40.22;;;;;;;;;;5101324;28;20255;-75
2023/01/05 10:28:36;;;;;;;37.40;30.90;;;;;;;;;;5100850;28;20343;-74
2023/01/05 10:31:06;;;;;;;33.80;30.33;;;;;;;;;;5100935;28;20026;-75
2023/01/05 10:33:45;;;;;;;36.35;32.63;;;;;;;;;;5101453;28;20023;-75
2023/01/05 10:36:16;;;;;;;24.52;22.05;;;;;;;;;;5100638;28;20098;-77
2023/01/05 10:38:45;;;;;;;22.10;19.58;;;;;;;;;;5101741;27;20031;-77
2023/01/05 10:41:28;;;;;;;20.52;18.33;;;;;;;;;;5103501;27;20027;-75
2023/01/05 10:44:06;;;;;;;22.23;19.98;;;;;;;;;;5103770;27;20024;-75
2023/01/05 10:46:31;;;;;;;26.60;23.92;;;;;;;;;;5106567;27;20319;-76
2023/01/05 10:48:58;;;;;;;36.65;28.00;;;;;;;;;;5117987;27;20440;-77
2023/01/05 10:51:23;;;;;;;49.03;36.70;;;;;;;;;;5099412;27;20425;-74
2023/01/05 10:53:49;;;;;;;40.40;31.70;;;;;;;;;;5113589;27;20054;-74
2023/01/05 10:56:21;;;;;;;58.53;51.58;;;;;;;;;;5121228;27;20043;-74
2023/01/05 10:58:46;;;;;;;81.88;58.70;;;;;;;;;;5105660;27;20036;-75
2023/01/05 11:01:30;;;;;;;52.05;41.60;;;;;;;;;;5116192;27;20072;-78
2023/01/05 11:04:04;;;;;;;36.83;31.17;;;;;;;;;;5119756;27;20026;-77
2023/01/05 11:06:31;;;;;;;25.92;21.65;;;;;;;;;;5116490;27;20027;-73
2023/01/05 11:09:05;;;;;;;26.40;23.25;;;;;;;;;;5095586;27;20380;-73
2023/01/05 11:11:31;;;;;;;23.45;21.00;;;;;;;;;;5115876;27;20362;-73
2023/01/05 11:13:57;;;;;;;20.63;17.33;;;;;;;;;;5115023;27;20023;-77
2023/01/05 11:16:26;;;;;;;20.33;18.33;;;;;;;;;;5114338;27;20019;-73
2023/01/05 11:18:53;;;;;;;19.83;17.23;;;;;;;;;;5119912;27;20011;-74
2023/01/05 11:21:19;;;;;;;17.05;15.18;;;;;;;;;;5116243;27;20039;-73
2023/01/05 11:23:55;;;;;;;22.70;18.35;;;;;;;;;;5115924;27;20058;-74
2023/01/05 11:26:25;;;;;;;17.70;15.90;;;;;;;;;;5101264;27;20361;-74
2023/01/05 11:28:59;;;;;;;21.73;19.38;;;;;;;;;;5117804;27;20058;-77
2023/01/05 11:31:45;;;;;;;17.95;16.25;;;;;;;;;;5119403;27;20049;-73
2023/01/05 11:34:13;;;;;;;16.05;14.35;;;;;;;;;;5102387;27;20415;-74
2023/01/05 11:36:39;;;;;;;16.25;14.65;;;;;;;;;;5118664;27;20044;-74
2023/01/05 11:39:04;;;;;;;24.48;22.05;;;;;;;;;;5116327;27;20114;-71
2023/01/05 11:41:30;;;;;;;18.17;16.33;;;;;;;;;;5117921;27;20027;-72
2023/01/05 11:43:59;;;;;;;15.98;14.27;;;;;;;;;;5117614;27;20118;-75
2023/01/05 11:46:24;;;;;;;17.48;15.48;;;;;;;;;;5119419;27;20114;-73
2023/01/05 11:48:54;;;;;;;14.75;13.15;;;;;;;;;;5116455;27;20110;-74
2023/01/05 11:51:36;;;;;;;15.10;13.55;;;;;;;;;;5114824;27;20054;-73
2023/01/05 11:54:01;;;;;;;21.80;19.60;;;;;;;;;;5115419;27;20023;-78
2023/01/05 11:56:26;;;;;;;16.02;14.45;;;;;;;;;;5116044;27;20023;-72
2023/01/05 11:58:56;;;;;;;18.40;16.00;;;;;;;;;;5117003;27;20366;-72
2023/01/05 12:01:50;;;;;;;11.02;9.77;;;;;;;;;;5118273;27;20114;-71
2023/01/05 12:04:28;;;;;;;13.32;10.85;;;;;;;;;;5116331;27;20023;-73
2023/01/05 12:07:08;;;;;;;15.88;14.13;;;;;;;;;;5118095;27;20027;-72
2023/01/05 12:09:35;;;;;;;13.13;11.77;;;;;;;;;;5114803;27;20084;-73
2023/01/05 12:12:04;;;;;;;21.80;15.95;;;;;;;;;;5116992;27;21037;-74
2023/01/05 12:14:42;;;;;;;18.60;16.13;;;;;;;;;;5119321;27;20051;-74
2023/01/05 12:17:31;;;;;;;13.20;11.80;;;;;;;;;;5115934;27;20062;-74
2023/01/05 12:19:56;;;;;;;25.70;21.23;;;;;;;;;;5075583;27;20031;-76
2023/01/05 12:22:22;;;;;;;39.72;30.40;;;;;;;;;;5100920;27;20047;-74
2023/01/05 12:25:07;;;;;;;19.45;17.50;;;;;;;;;;5116719;27;20051;-73
2023/01/05 12:27:47;;;;;;;12.52;10.90;;;;;;;;;;5114828;27;20069;-73
2023/01/05 12:30:22;;;;;;;10.55;8.93;;;;;;;;;;5118519;27;20486;-76
2023/01/05 12:32:47;;;;;;;14.30;11.45;;;;;;;;;;5116097;27;20038;-74
2023/01/05 12:35:35;;;;;;;12.43;10.88;;;;;;;;;;5099611;27;20023;-73
2023/01/05 12:38:04;;;;;;;15.05;11.98;;;;;;;;;;5104437;27;20031;-72
2023/01/05 12:40:36;;;;;;;16.60;15.00;;;;;;;;;;5117460;27;20099;-72
2023/01/05 12:43:16;;;;;;;29.17;25.50;;;;;;;;;;5115829;27;20026;-73
2023/01/05 12:45:42;;;;;;;16.83;15.02;;;;;;;;;;5116052;27;20370;-72
2023/01/05 12:48:07;;;;;;;28.00;21.13;;;;;;;;;;5116317;27;20027;-72
2023/01/05 12:50:36;;;;;;;21.75;16.55;;;;;;;;;;5111220;27;20107;-72
2023/01/05 12:53:02;;;;;;;;;;;;;;;;;;5119112;27;20027;-72
2023/01/05 12:55:30;;;;;;;26.00;21.27;;;;;;;;;;5114821;27;19912;-71
2023/01/05 12:58:01;;;;;;;31.27;25.80;;;;;;;;;;5113503;27;20023;-78
2023/01/05 13:00:30;;;;;;;26.65;23.85;;;;;;;;;;5117572;27;20034;-74
2023/01/05 13:03:02;;;;;;;33.67;27.63;;;;;;;;;;5116161;27;20063;-72
2023/01/05 13:05:33;;;;;;;27.10;23.55;;;;;;;;;;5114615;27;20416;-73
2023/01/05 13:08:27;;;;;;;20.48;17.45;;;;;;;;;;5116318;27;20031;-72
2023/01/05 13:10:59;;;;;;;15.20;13.68;;;;;;;;;;5033890;28;20917;-74
2023/01/05 13:13:27;;;;;;;21.52;19.23;;;;;;;;;;5034360;28;20049;-72
2023/01/05 13:15:53;;;;;;;17.38;15.50;;;;;;;;;;5030728;28;20460;-72
2023/01/05 13:18:19;;;;;;;17.15;15.27;;;;;;;;;;5030451;28;20127;-73
2023/01/05 13:21:00;;;;;;;17.02;14.68;;;;;;;;;;5030519;28;20460;-72
2023/01/05 13:23:30;;;;;;;15.80;13.50;;;;;;;;;;5032707;28;20051;-72
2023/01/05 13:26:00;;;;;;;20.95;18.85;;;;;;;;;;5033055;28;20460;-73
2023/01/05 13:28:26;;;;;;;34.03;27.35;;;;;;;;;;5028911;28;20051;-74
2023/01/05 13:31:01;;;;;;;12.05;10.85;;;;;;;;;;5032631;28;20032;-73
2023/01/05 13:33:26;;;;;;;10.27;9.27;;;;;;;;;;5031125;28;20032;-73
2023/01/05 13:36:02;;;;;;;14.40;11.18;;;;;;;;;;5030608;28;20025;-78
2023/01/05 13:38:43;;;;;;;12.98;11.63;;;;;;;;;;5029648;28;20440;-75
2023/01/05 13:41:23;;;;;;;10.85;9.82;;;;;;;;;;5031007;28;20098;-73
2023/01/05 13:44:24;;;;;;;14.75;13.25;;;;;;;;;;5031484;28;20044;-78
2023/01/05 13:47:01;;;;;;;37.90;33.95;;;;;;;;;;4963980;28;20112;-72
2023/01/05 13:49:34;;;;;;;32.00;28.77;;;;;;;;;;5010618;28;21468;-74
2023/01/05 13:52:02;;;;;;;19.33;17.30;;;;;;;;;;5011778;28;20044;-73
2023/01/05 13:54:39;;;;;;;19.63;17.20;;;;;;;;;;5011299;28;20034;-74
2023/01/05 13:57:11;;;;;;;14.80;13.30;;;;;;;;;;5010671;28;20044;-72
2023/01/05 13:59:37;;;;;;;16.63;13.27;;;;;;;;;;5007384;28;20062;-74
2023/01/05 14:02:03;;;;;;;16.35;14.73;;;;;;;;;;5011017;28;20475;-73
2023/01/05 14:04:29;;;;;;;17.65;15.70;;;;;;;;;;5010169;28;20092;-72
2023/01/05 14:07:15;;;;;;;19.67;17.10;;;;;;;;;;5008185;28;20128;-72
2023/01/05 14:09:46;;;;;;;29.73;25.42;;;;;;;;;;5012229;28;20523;-72
2023/01/05 14:12:14;;;;;;;30.38;27.08;;;;;;;;;;5011106;28;20506;-72
2023/01/05 14:14:58;;;;;;;21.33;18.63;;;;;;;;;;5000936;28;20038;-73
2023/01/05 14:17:42;;;;;;;35.30;31.23;;;;;;;;;;5011390;28;20029;-72
2023/01/05 14:20:27;;;;;;;22.55;20.25;;;;;;;;;;5038103;27;20063;-73
2023/01/05 14:22:52;;;;;;;18.13;16.23;;;;;;;;;;5115975;27;20102;-72
2023/01/05 14:25:36;;;;;;;16.30;14.60;;;;;;;;;;5098540;27;20106;-73
2023/01/05 14:28:20;;;;;;;17.67;15.77;;;;;;;;;;5113747;27;20098;-74
2023/01/05 14:30:46;;;;;;;14.20;12.70;;;;;;;;;;5117337;27;20478;-74
2023/01/05 14:33:11;;;;;;;20.20;16.60;;;;;;;;;;5117796;27;20668;-75
2023/01/05 14:35:37;;;;;;;24.95;21.75;;;;;;;;;;5105913;27;20080;-74
2023/01/05 14:38:21;;;;;;;29.95;26.75;;;;;;;;;;5102379;27;20366;-75
2023/01/05 14:40:50;;;;;;;27.85;24.92;;;;;;;;;;5113644;27;20027;-74
2023/01/05 14:43:24;;;;;;;36.30;25.55;;;;;;;;;;5116517;27;20621;-78
2023/01/05 14:46:08;;;;;;;32.63;28.90;;;;;;;;;;5118056;27;20114;-75
2023/01/05 14:48:33;;;;;;;18.98;15.05;;;;;;;;;;5119621;27;20049;-75
2023/01/05 14:51:11;;;;;;;23.20;19.30;;;;;;;;;;5107441;27;20494;-74
2023/01/05 14:53:40;;;;;;;22.33;19.90;;;;;;;;;;5106573;27;20027;-72
2023/01/05 14:56:05;;;;;;;34.55;29.80;;;;;;;;;;5107271;27;20030;-74
2023/01/05 14:58:37;;;;;;;93.50;70.90;;;;;;;;;;5119811;27;20047;-73